sensor_id;sensor_type;location;lat;lon;timestamp;P1;durP1;ratioP1;P2;durP2;ratioP2
15285;SDS011;7744;52.172;10.668;2023-07-30T00:01:55;1.40;;;1.30;;
15285;SDS011;7744;52.172;10.668;2023-07-30T00:04:20;1.45;;;1.35;;
15285;SDS011;7744;52.172;10.668;2023-07-30T00:06:46;1.45;;;1.30;;
15285;SDS011;7744;52.172;10.668;2023-07-30T00:09:12;1.58;;;1.48;;
15285;SDS011;7744;52.172;10.668;2023-07-30T00:11:37;1.20;;;1.15;;
15285;SDS011;7744;52.172;10.668;2023-07-30T00:14:03;1.50;;;1.40;;
15285;SDS011;7744;52.172;10.668;2023-07-30T00:16:29;1.92;;;1.80;;
15285;SDS011;7744;52.172;10.668;2023-07-30T00:18:55;1.50;;;1.40;;
15285;SDS011;7744;52.172;10.668;2023-07-30T00:21:21;1.45;;;1.35;;
15285;SDS011;7744;52.172;10.668;2023-07-30T00:23:47;1.48;;;1.38;;
15285;SDS011;7744;52.172;10.668;2023-07-30T00:26:13;1.50;;;1.40;;
15285;SDS011;7744;52.172;10.668;2023-07-30T00:28:38;1.88;;;1.50;;
15285;SDS011;7744;52.172;10.668;2023-07-30T00:31:04;1.50;;;1.40;;
15285;SDS011;7744;52.172;10.668;2023-07-30T00:33:29;2.15;;;1.60;;
15285;SDS011;7744;52.172;10.668;2023-07-30T00:35:55;1.48;;;1.30;;
15285;SDS011;7744;52.172;10.668;2023-07-30T00:38:21;1.33;;;1.23;;
15285;SDS011;7744;52.172;10.668;2023-07-30T00:40:46;2.65;;;1.42;;
15285;SDS011;7744;52.172;10.668;2023-07-30T00:43:12;1.50;;;1.40;;
15285;SDS011;7744;52.172;10.668;2023-07-30T00:45:38;1.75;;;1.60;;
15285;SDS011;7744;52.172;10.668;2023-07-30T00:48:05;1.70;;;1.60;;
15285;SDS011;7744;52.172;10.668;2023-07-30T00:50:31;1.40;;;1.30;;
15285;SDS011;7744;52.172;10.668;2023-07-30T00:52:58;1.92;;;1.73;;
15285;SDS011;7744;52.172;10.668;2023-07-30T00:55:23;1.65;;;1.50;;
15285;SDS011;7744;52.172;10.668;2023-07-30T00:57:49;1.50;;;1.40;;
15285;SDS011;7744;52.172;10.668;2023-07-30T01:00:16;1.38;;;1.27;;
15285;SDS011;7744;52.172;10.668;2023-07-30T01:02:42;1.70;;;1.60;;
15285;SDS011;7744;52.172;10.668;2023-07-30T01:05:08;1.95;;;1.40;;
15285;SDS011;7744;52.172;10.668;2023-07-30T01:07:34;1.80;;;1.70;;
15285;SDS011;7744;52.172;10.668;2023-07-30T01:10:00;2.42;;;1.58;;
15285;SDS011;7744;52.172;10.668;2023-07-30T01:12:26;1.63;;;1.45;;
15285;SDS011;7744;52.172;10.668;2023-07-30T01:14:54;1.42;;;1.35;;
15285;SDS011;7744;52.172;10.668;2023-07-30T01:17:21;2.03;;;1.40;;
15285;SDS011;7744;52.172;10.668;2023-07-30T01:19:47;1.88;;;1.50;;
15285;SDS011;7744;52.172;10.668;2023-07-30T01:22:14;1.60;;;1.50;;
15285;SDS011;7744;52.172;10.668;2023-07-30T01:24:40;1.73;;;1.58;;
15285;SDS011;7744;52.172;10.668;2023-07-30T01:27:07;1.55;;;1.45;;
15285;SDS011;7744;52.172;10.668;2023-07-30T01:29:48;2.03;;;1.35;;
15285;SDS011;7744;52.172;10.668;2023-07-30T01:32:20;2.85;;;1.83;;
15285;SDS011;7744;52.172;10.668;2023-07-30T01:34:50;1.63;;;1.52;;
15285;SDS011;7744;52.172;10.668;2023-07-30T01:37:18;2.25;;;1.65;;
15285;SDS011;7744;52.172;10.668;2023-07-30T01:39:44;2.28;;;1.80;;
15285;SDS011;7744;52.172;10.668;2023-07-30T01:42:11;1.60;;;1.50;;
15285;SDS011;7744;52.172;10.668;2023-07-30T01:44:37;2.45;;;1.60;;
15285;SDS011;7744;52.172;10.668;2023-07-30T01:47:03;2.60;;;1.70;;
15285;SDS011;7744;52.172;10.668;2023-07-30T01:49:28;1.77;;;1.67;;
15285;SDS011;7744;52.172;10.668;2023-07-30T01:51:54;2.95;;;1.70;;
15285;SDS011;7744;52.172;10.668;2023-07-30T01:54:19;2.00;;;1.90;;
15285;SDS011;7744;52.172;10.668;2023-07-30T01:56:45;2.10;;;1.70;;
15285;SDS011;7744;52.172;10.668;2023-07-30T01:59:11;2.42;;;1.80;;
15285;SDS011;7744;52.172;10.668;2023-07-30T02:01:36;1.98;;;1.73;;
15285;SDS011;7744;52.172;10.668;2023-07-30T02:04:02;2.30;;;1.70;;
15285;SDS011;7744;52.172;10.668;2023-07-30T02:06:27;2.03;;;1.45;;
15285;SDS011;7744;52.172;10.668;2023-07-30T02:08:53;3.45;;;2.20;;
15285;SDS011;7744;52.172;10.668;2023-07-30T02:11:18;1.80;;;1.70;;
15285;SDS011;7744;52.172;10.668;2023-07-30T02:13:44;2.13;;;1.92;;
15285;SDS011;7744;52.172;10.668;2023-07-30T02:16:10;2.10;;;2.00;;
15285;SDS011;7744;52.172;10.668;2023-07-30T02:18:35;2.03;;;1.83;;
15285;SDS011;7744;52.172;10.668;2023-07-30T02:21:01;2.22;;;1.80;;
15285;SDS011;7744;52.172;10.668;2023-07-30T02:23:26;2.13;;;1.80;;
15285;SDS011;7744;52.172;10.668;2023-07-30T02:25:52;2.25;;;1.92;;
15285;SDS011;7744;52.172;10.668;2023-07-30T02:28:18;2.33;;;2.00;;
15285;SDS011;7744;52.172;10.668;2023-07-30T02:30:43;2.10;;;1.90;;
15285;SDS011;7744;52.172;10.668;2023-07-30T02:33:09;2.15;;;1.77;;
15285;SDS011;7744;52.172;10.668;2023-07-30T02:35:34;2.65;;;2.00;;
15285;SDS011;7744;52.172;10.668;2023-07-30T02:38:00;1.80;;;1.70;;
15285;SDS011;7744;52.172;10.668;2023-07-30T02:40:26;2.10;;;2.00;;
15285;SDS011;7744;52.172;10.668;2023-07-30T02:42:51;2.45;;;2.10;;
15285;SDS011;7744;52.172;10.668;2023-07-30T02:45:17;2.00;;;1.90;;
15285;SDS011;7744;52.172;10.668;2023-07-30T02:47:43;2.13;;;2.03;;
15285;SDS011;7744;52.172;10.668;2023-07-30T02:50:09;2.17;;;1.98;;
15285;SDS011;7744;52.172;10.668;2023-07-30T02:52:34;2.10;;;1.90;;
15285;SDS011;7744;52.172;10.668;2023-07-30T02:55:00;2.67;;;2.47;;
15285;SDS011;7744;52.172;10.668;2023-07-30T02:57:26;2.53;;;2.33;;
15285;SDS011;7744;52.172;10.668;2023-07-30T02:59:51;2.60;;;2.10;;
15285;SDS011;7744;52.172;10.668;2023-07-30T03:02:17;2.70;;;2.50;;
15285;SDS011;7744;52.172;10.668;2023-07-30T03:04:42;2.85;;;2.58;;
15285;SDS011;7744;52.172;10.668;2023-07-30T03:07:09;3.38;;;2.72;;
15285;SDS011;7744;52.172;10.668;2023-07-30T03:09:34;3.38;;;2.47;;
15285;SDS011;7744;52.172;10.668;2023-07-30T03:12:00;3.10;;;2.60;;
15285;SDS011;7744;52.172;10.668;2023-07-30T03:14:26;2.65;;;2.42;;
15285;SDS011;7744;52.172;10.668;2023-07-30T03:16:52;3.17;;;2.70;;
15285;SDS011;7744;52.172;10.668;2023-07-30T03:19:17;2.88;;;2.50;;
15285;SDS011;7744;52.172;10.668;2023-07-30T03:21:43;4.20;;;3.00;;
15285;SDS011;7744;52.172;10.668;2023-07-30T03:24:09;3.33;;;3.03;;
15285;SDS011;7744;52.172;10.668;2023-07-30T03:26:35;2.70;;;2.47;;
15285;SDS011;7744;52.172;10.668;2023-07-30T03:29:00;3.70;;;2.78;;
15285;SDS011;7744;52.172;10.668;2023-07-30T03:31:26;3.22;;;2.92;;
15285;SDS011;7744;52.172;10.668;2023-07-30T03:33:53;2.80;;;2.60;;
15285;SDS011;7744;52.172;10.668;2023-07-30T03:36:19;5.10;;;2.80;;
15285;SDS011;7744;52.172;10.668;2023-07-30T03:38:45;2.88;;;2.58;;
15285;SDS011;7744;52.172;10.668;2023-07-30T03:41:11;2.95;;;2.75;;
15285;SDS011;7744;52.172;10.668;2023-07-30T03:43:36;3.05;;;2.55;;
15285;SDS011;7744;52.172;10.668;2023-07-30T03:46:02;3.30;;;3.00;;
15285;SDS011;7744;52.172;10.668;2023-07-30T03:48:28;2.95;;;2.70;;
15285;SDS011;7744;52.172;10.668;2023-07-30T03:50:54;2.88;;;2.53;;
15285;SDS011;7744;52.172;10.668;2023-07-30T03:53:20;2.92;;;2.45;;
15285;SDS011;7744;52.172;10.668;2023-07-30T03:55:46;3.00;;;2.80;;
15285;SDS011;7744;52.172;10.668;2023-07-30T03:58:11;3.38;;;2.78;;
15285;SDS011;7744;52.172;10.668;2023-07-30T04:00:37;3.20;;;2.90;;
15285;SDS011;7744;52.172;10.668;2023-07-30T04:03:03;3.75;;;3.45;;
15285;SDS011;7744;52.172;10.668;2023-07-30T04:05:29;3.10;;;2.80;;
15285;SDS011;7744;52.172;10.668;2023-07-30T04:07:55;3.28;;;2.85;;
15285;SDS011;7744;52.172;10.668;2023-07-30T04:10:20;3.63;;;3.05;;
15285;SDS011;7744;52.172;10.668;2023-07-30T04:12:46;2.45;;;2.22;;
15285;SDS011;7744;52.172;10.668;2023-07-30T04:15:12;3.28;;;2.80;;
15285;SDS011;7744;52.172;10.668;2023-07-30T04:17:38;2.80;;;2.50;;
15285;SDS011;7744;52.172;10.668;2023-07-30T04:20:03;3.55;;;2.97;;
15285;SDS011;7744;52.172;10.668;2023-07-30T04:22:30;3.40;;;3.10;;
15285;SDS011;7744;52.172;10.668;2023-07-30T04:24:56;3.72;;;2.83;;
15285;SDS011;7744;52.172;10.668;2023-07-30T04:27:21;3.65;;;3.15;;
15285;SDS011;7744;52.172;10.668;2023-07-30T04:29:47;3.05;;;2.83;;
15285;SDS011;7744;52.172;10.668;2023-07-30T04:32:13;3.05;;;2.80;;
15285;SDS011;7744;52.172;10.668;2023-07-30T04:34:39;2.92;;;2.63;;
15285;SDS011;7744;52.172;10.668;2023-07-30T04:37:05;3.10;;;2.78;;
15285;SDS011;7744;52.172;10.668;2023-07-30T04:39:34;3.22;;;2.78;;
15285;SDS011;7744;52.172;10.668;2023-07-30T04:42:00;3.15;;;2.50;;
15285;SDS011;7744;52.172;10.668;2023-07-30T04:44:25;2.78;;;2.58;;
15285;SDS011;7744;52.172;10.668;2023-07-30T04:46:51;2.67;;;2.47;;
15285;SDS011;7744;52.172;10.668;2023-07-30T04:49:17;3.25;;;2.72;;
15285;SDS011;7744;52.172;10.668;2023-07-30T04:51:42;2.70;;;2.50;;
15285;SDS011;7744;52.172;10.668;2023-07-30T04:54:08;2.72;;;2.30;;
15285;SDS011;7744;52.172;10.668;2023-07-30T04:56:34;2.92;;;2.30;;
15285;SDS011;7744;52.172;10.668;2023-07-30T04:59:00;2.30;;;2.10;;
15285;SDS011;7744;52.172;10.668;2023-07-30T05:01:26;2.65;;;2.38;;
15285;SDS011;7744;52.172;10.668;2023-07-30T05:03:52;2.88;;;2.28;;
15285;SDS011;7744;52.172;10.668;2023-07-30T05:06:18;3.60;;;2.30;;
15285;SDS011;7744;52.172;10.668;2023-07-30T05:08:43;2.65;;;2.15;;
15285;SDS011;7744;52.172;10.668;2023-07-30T05:11:09;2.60;;;2.10;;
15285;SDS011;7744;52.172;10.668;2023-07-30T05:13:35;2.88;;;2.10;;
15285;SDS011;7744;52.172;10.668;2023-07-30T05:16:00;2.05;;;1.58;;
15285;SDS011;7744;52.172;10.668;2023-07-30T05:18:26;2.35;;;1.73;;
15285;SDS011;7744;52.172;10.668;2023-07-30T05:20:52;2.78;;;1.77;;
15285;SDS011;7744;52.172;10.668;2023-07-30T05:23:19;2.47;;;1.70;;
15285;SDS011;7744;52.172;10.668;2023-07-30T05:25:45;4.22;;;1.60;;
15285;SDS011;7744;52.172;10.668;2023-07-30T05:28:11;1.92;;;1.60;;
15285;SDS011;7744;52.172;10.668;2023-07-30T05:30:36;2.63;;;1.60;;
15285;SDS011;7744;52.172;10.668;2023-07-30T05:33:02;3.88;;;1.92;;
15285;SDS011;7744;52.172;10.668;2023-07-30T05:35:28;4.45;;;1.90;;
15285;SDS011;7744;52.172;10.668;2023-07-30T05:37:53;3.55;;;1.85;;
15285;SDS011;7744;52.172;10.668;2023-07-30T05:40:20;4.75;;;2.38;;
15285;SDS011;7744;52.172;10.668;2023-07-30T05:42:46;4.93;;;2.03;;
15285;SDS011;7744;52.172;10.668;2023-07-30T05:45:11;3.95;;;2.00;;
15285;SDS011;7744;52.172;10.668;2023-07-30T05:47:37;2.92;;;1.70;;
15285;SDS011;7744;52.172;10.668;2023-07-30T05:50:03;2.45;;;1.50;;
15285;SDS011;7744;52.172;10.668;2023-07-30T05:52:29;3.40;;;2.25;;
15285;SDS011;7744;52.172;10.668;2023-07-30T05:54:55;4.40;;;1.77;;
15285;SDS011;7744;52.172;10.668;2023-07-30T05:57:21;5.28;;;2.22;;
15285;SDS011;7744;52.172;10.668;2023-07-30T06:02:16;4.28;;;2.58;;
15285;SDS011;7744;52.172;10.668;2023-07-30T06:04:42;4.55;;;2.90;;
15285;SDS011;7744;52.172;10.668;2023-07-30T06:07:19;4.05;;;2.72;;
15285;SDS011;7744;52.172;10.668;2023-07-30T06:09:44;5.90;;;3.08;;
15285;SDS011;7744;52.172;10.668;2023-07-30T06:12:20;4.25;;;3.42;;
15285;SDS011;7744;52.172;10.668;2023-07-30T06:14:49;4.90;;;3.33;;
15285;SDS011;7744;52.172;10.668;2023-07-30T06:17:18;6.38;;;3.40;;
15285;SDS011;7744;52.172;10.668;2023-07-30T06:19:43;4.88;;;3.42;;
15285;SDS011;7744;52.172;10.668;2023-07-30T06:22:09;6.10;;;4.03;;
15285;SDS011;7744;52.172;10.668;2023-07-30T06:24:35;3.72;;;3.33;;
15285;SDS011;7744;52.172;10.668;2023-07-30T06:27:00;4.45;;;3.97;;
15285;SDS011;7744;52.172;10.668;2023-07-30T06:29:26;3.95;;;3.55;;
15285;SDS011;7744;52.172;10.668;2023-07-30T06:31:51;5.18;;;3.78;;
15285;SDS011;7744;52.172;10.668;2023-07-30T06:34:17;4.80;;;3.90;;
15285;SDS011;7744;52.172;10.668;2023-07-30T06:36:47;5.97;;;4.25;;
15285;SDS011;7744;52.172;10.668;2023-07-30T06:39:12;5.00;;;4.50;;
15285;SDS011;7744;52.172;10.668;2023-07-30T06:41:38;5.43;;;4.13;;
15285;SDS011;7744;52.172;10.668;2023-07-30T06:44:03;4.90;;;4.10;;
15285;SDS011;7744;52.172;10.668;2023-07-30T06:46:29;7.32;;;4.30;;
15285;SDS011;7744;52.172;10.668;2023-07-30T06:48:55;4.68;;;3.42;;
15285;SDS011;7744;52.172;10.668;2023-07-30T06:51:33;3.88;;;3.40;;
15285;SDS011;7744;52.172;10.668;2023-07-30T06:53:59;6.03;;;3.33;;
15285;SDS011;7744;52.172;10.668;2023-07-30T06:56:24;5.25;;;3.20;;
15285;SDS011;7744;52.172;10.668;2023-07-30T06:58:50;6.15;;;3.20;;
15285;SDS011;7744;52.172;10.668;2023-07-30T07:01:15;3.92;;;2.75;;
15285;SDS011;7744;52.172;10.668;2023-07-30T07:03:41;4.40;;;2.67;;
15285;SDS011;7744;52.172;10.668;2023-07-30T07:06:07;3.47;;;2.65;;
15285;SDS011;7744;52.172;10.668;2023-07-30T07:08:32;3.42;;;2.40;;
15285;SDS011;7744;52.172;10.668;2023-07-30T07:10:59;2.85;;;2.10;;
15285;SDS011;7744;52.172;10.668;2023-07-30T07:13:25;3.13;;;2.08;;
15285;SDS011;7744;52.172;10.668;2023-07-30T07:15:50;4.35;;;1.92;;
15285;SDS011;7744;52.172;10.668;2023-07-30T07:18:17;3.17;;;2.20;;
15285;SDS011;7744;52.172;10.668;2023-07-30T07:20:43;3.10;;;2.10;;
15285;SDS011;7744;52.172;10.668;2023-07-30T07:23:08;3.25;;;1.98;;
15285;SDS011;7744;52.172;10.668;2023-07-30T07:25:34;2.53;;;1.80;;
15285;SDS011;7744;52.172;10.668;2023-07-30T07:28:00;5.60;;;1.77;;
15285;SDS011;7744;52.172;10.668;2023-07-30T07:30:25;5.10;;;1.80;;
15285;SDS011;7744;52.172;10.668;2023-07-30T07:32:52;3.15;;;1.70;;
15285;SDS011;7744;52.172;10.668;2023-07-30T07:35:18;2.78;;;1.67;;
15285;SDS011;7744;52.172;10.668;2023-07-30T07:37:45;3.97;;;1.85;;
15285;SDS011;7744;52.172;10.668;2023-07-30T07:40:11;4.70;;;1.95;;
15285;SDS011;7744;52.172;10.668;2023-07-30T07:42:38;2.60;;;1.73;;
15285;SDS011;7744;52.172;10.668;2023-07-30T07:45:04;3.58;;;1.60;;
15285;SDS011;7744;52.172;10.668;2023-07-30T07:47:31;2.45;;;1.40;;
15285;SDS011;7744;52.172;10.668;2023-07-30T07:49:58;4.15;;;1.70;;
15285;SDS011;7744;52.172;10.668;2023-07-30T07:52:23;2.47;;;1.60;;
15285;SDS011;7744;52.172;10.668;2023-07-30T07:54:49;4.53;;;1.90;;
15285;SDS011;7744;52.172;10.668;2023-07-30T07:57:14;4.18;;;1.80;;
15285;SDS011;7744;52.172;10.668;2023-07-30T07:59:40;3.13;;;1.70;;
15285;SDS011;7744;52.172;10.668;2023-07-30T08:05:31;6.30;;;1.95;;
15285;SDS011;7744;52.172;10.668;2023-07-30T08:07:57;3.83;;;1.60;;
15285;SDS011;7744;52.172;10.668;2023-07-30T08:10:22;3.95;;;1.60;;
15285;SDS011;7744;52.172;10.668;2023-07-30T08:12:48;2.85;;;1.70;;
15285;SDS011;7744;52.172;10.668;2023-07-30T08:15:14;3.05;;;1.90;;
15285;SDS011;7744;52.172;10.668;2023-07-30T08:17:40;2.78;;;1.58;;
15285;SDS011;7744;52.172;10.668;2023-07-30T08:20:05;3.30;;;1.30;;
15285;SDS011;7744;52.172;10.668;2023-07-30T08:22:31;2.42;;;1.42;;
15285;SDS011;7744;52.172;10.668;2023-07-30T08:24:58;3.80;;;1.60;;
15285;SDS011;7744;52.172;10.668;2023-07-30T08:27:23;4.20;;;1.60;;
15285;SDS011;7744;52.172;10.668;2023-07-30T08:29:49;3.33;;;1.90;;
15285;SDS011;7744;52.172;10.668;2023-07-30T08:32:14;3.42;;;1.67;;
15285;SDS011;7744;52.172;10.668;2023-07-30T08:34:40;3.35;;;1.63;;
15285;SDS011;7744;52.172;10.668;2023-07-30T08:37:05;2.63;;;1.70;;
15285;SDS011;7744;52.172;10.668;2023-07-30T08:39:31;3.33;;;1.80;;
15285;SDS011;7744;52.172;10.668;2023-07-30T08:41:57;3.25;;;1.60;;
15285;SDS011;7744;52.172;10.668;2023-07-30T08:44:23;2.58;;;1.65;;
15285;SDS011;7744;52.172;10.668;2023-07-30T08:46:49;3.30;;;1.50;;
15285;SDS011;7744;52.172;10.668;2023-07-30T08:49:14;4.20;;;1.60;;
15285;SDS011;7744;52.172;10.668;2023-07-30T08:51:40;5.90;;;1.90;;
15285;SDS011;7744;52.172;10.668;2023-07-30T08:54:08;2.35;;;1.30;;
15285;SDS011;7744;52.172;10.668;2023-07-30T08:56:35;3.83;;;1.73;;
15285;SDS011;7744;52.172;10.668;2023-07-30T08:59:01;2.60;;;1.80;;
15285;SDS011;7744;52.172;10.668;2023-07-30T09:01:33;3.08;;;1.50;;
15285;SDS011;7744;52.172;10.668;2023-07-30T09:04:02;3.10;;;1.50;;
15285;SDS011;7744;52.172;10.668;2023-07-30T09:06:28;6.65;;;1.80;;
15285;SDS011;7744;52.172;10.668;2023-07-30T09:08:53;3.72;;;1.65;;
15285;SDS011;7744;52.172;10.668;2023-07-30T09:11:19;3.58;;;1.70;;
15285;SDS011;7744;52.172;10.668;2023-07-30T09:13:45;5.13;;;1.73;;
15285;SDS011;7744;52.172;10.668;2023-07-30T09:16:11;3.83;;;1.52;;
15285;SDS011;7744;52.172;10.668;2023-07-30T09:18:39;3.20;;;2.00;;
15285;SDS011;7744;52.172;10.668;2023-07-30T09:21:12;4.53;;;1.50;;
15285;SDS011;7744;52.172;10.668;2023-07-30T09:23:42;2.38;;;1.65;;
15285;SDS011;7744;52.172;10.668;2023-07-30T09:26:09;3.08;;;1.50;;
15285;SDS011;7744;52.172;10.668;2023-07-30T09:28:35;3.45;;;1.60;;
15285;SDS011;7744;52.172;10.668;2023-07-30T09:31:01;4.07;;;1.77;;
15285;SDS011;7744;52.172;10.668;2023-07-30T09:33:27;2.78;;;1.70;;
15285;SDS011;7744;52.172;10.668;2023-07-30T09:35:53;3.28;;;1.40;;
15285;SDS011;7744;52.172;10.668;2023-07-30T09:38:20;3.90;;;1.40;;
15285;SDS011;7744;52.172;10.668;2023-07-30T09:40:46;3.03;;;1.17;;
15285;SDS011;7744;52.172;10.668;2023-07-30T09:43:14;4.63;;;1.48;;
15285;SDS011;7744;52.172;10.668;2023-07-30T09:45:43;2.97;;;1.50;;
15285;SDS011;7744;52.172;10.668;2023-07-30T09:48:12;2.40;;;1.23;;
15285;SDS011;7744;52.172;10.668;2023-07-30T09:50:38;3.00;;;1.23;;
15285;SDS011;7744;52.172;10.668;2023-07-30T09:53:05;2.53;;;1.23;;
15285;SDS011;7744;52.172;10.668;2023-07-30T09:55:30;2.30;;;1.20;;
15285;SDS011;7744;52.172;10.668;2023-07-30T09:57:56;4.05;;;1.17;;
15285;SDS011;7744;52.172;10.668;2023-07-30T10:00:22;2.42;;;1.30;;
15285;SDS011;7744;52.172;10.668;2023-07-30T10:02:48;3.70;;;1.08;;
15285;SDS011;7744;52.172;10.668;2023-07-30T10:05:15;3.50;;;1.30;;
15285;SDS011;7744;52.172;10.668;2023-07-30T10:08:00;1.52;;;1.10;;
15285;SDS011;7744;52.172;10.668;2023-07-30T10:10:32;2.15;;;1.00;;
15285;SDS011;7744;52.172;10.668;2023-07-30T10:13:00;3.08;;;1.30;;
15285;SDS011;7744;52.172;10.668;2023-07-30T10:15:33;2.85;;;1.40;;
15285;SDS011;7744;52.172;10.668;2023-07-30T10:17:59;2.45;;;1.20;;
15285;SDS011;7744;52.172;10.668;2023-07-30T10:20:26;1.45;;;1.15;;
15285;SDS011;7744;52.172;10.668;2023-07-30T10:22:54;2.38;;;1.20;;
15285;SDS011;7744;52.172;10.668;2023-07-30T10:25:24;2.10;;;1.30;;
15285;SDS011;7744;52.172;10.668;2023-07-30T10:28:07;1.88;;;1.00;;
15285;SDS011;7744;52.172;10.668;2023-07-30T10:30:33;3.58;;;1.13;;
15285;SDS011;7744;52.172;10.668;2023-07-30T10:32:59;3.20;;;1.05;;
15285;SDS011;7744;52.172;10.668;2023-07-30T10:35:35;3.25;;;1.60;;
15285;SDS011;7744;52.172;10.668;2023-07-30T10:38:11;3.22;;;1.30;;
15285;SDS011;7744;52.172;10.668;2023-07-30T10:40:41;1.67;;;0.98;;
15285;SDS011;7744;52.172;10.668;2023-07-30T10:43:16;3.15;;;1.20;;
15285;SDS011;7744;52.172;10.668;2023-07-30T10:45:51;1.80;;;1.10;;
15285;SDS011;7744;52.172;10.668;2023-07-30T10:48:17;4.55;;;1.27;;
15285;SDS011;7744;52.172;10.668;2023-07-30T10:50:43;2.33;;;1.38;;
15285;SDS011;7744;52.172;10.668;2023-07-30T10:53:13;3.67;;;1.40;;
15285;SDS011;7744;52.172;10.668;2023-07-30T10:55:41;2.75;;;1.08;;
15285;SDS011;7744;52.172;10.668;2023-07-30T10:58:07;3.72;;;1.50;;
15285;SDS011;7744;52.172;10.668;2023-07-30T11:00:33;3.45;;;1.33;;
15285;SDS011;7744;52.172;10.668;2023-07-30T11:02:58;2.97;;;1.27;;
15285;SDS011;7744;52.172;10.668;2023-07-30T11:05:24;2.55;;;1.20;;
15285;SDS011;7744;52.172;10.668;2023-07-30T11:07:50;3.67;;;1.30;;
15285;SDS011;7744;52.172;10.668;2023-07-30T11:10:16;2.45;;;1.25;;
15285;SDS011;7744;52.172;10.668;2023-07-30T11:12:42;3.20;;;1.20;;
15285;SDS011;7744;52.172;10.668;2023-07-30T11:15:08;1.90;;;1.20;;
15285;SDS011;7744;52.172;10.668;2023-07-30T11:17:35;3.13;;;1.80;;
15285;SDS011;7744;52.172;10.668;2023-07-30T11:20:00;2.05;;;1.40;;
15285;SDS011;7744;52.172;10.668;2023-07-30T11:22:28;3.95;;;1.20;;
15285;SDS011;7744;52.172;10.668;2023-07-30T11:24:58;4.00;;;1.52;;
15285;SDS011;7744;52.172;10.668;2023-07-30T11:27:23;2.53;;;1.20;;
15285;SDS011;7744;52.172;10.668;2023-07-30T11:29:58;2.13;;;1.35;;
15285;SDS011;7744;52.172;10.668;2023-07-30T11:32:24;2.92;;;1.40;;
15285;SDS011;7744;52.172;10.668;2023-07-30T11:34:52;3.08;;;1.35;;
15285;SDS011;7744;52.172;10.668;2023-07-30T11:37:19;2.38;;;1.40;;
15285;SDS011;7744;52.172;10.668;2023-07-30T11:39:46;1.92;;;1.40;;
15285;SDS011;7744;52.172;10.668;2023-07-30T11:42:11;1.33;;;1.17;;
15285;SDS011;7744;52.172;10.668;2023-07-30T11:44:38;1.88;;;1.25;;
15285;SDS011;7744;52.172;10.668;2023-07-30T11:47:04;2.15;;;1.08;;
15285;SDS011;7744;52.172;10.668;2023-07-30T11:49:30;2.25;;;1.15;;
15285;SDS011;7744;52.172;10.668;2023-07-30T11:52:06;1.90;;;1.33;;
15285;SDS011;7744;52.172;10.668;2023-07-30T11:54:35;1.73;;;1.30;;
15285;SDS011;7744;52.172;10.668;2023-07-30T11:57:01;2.00;;;1.30;;
15285;SDS011;7744;52.172;10.668;2023-07-30T11:59:28;1.50;;;1.33;;
15285;SDS011;7744;52.172;10.668;2023-07-30T12:01:56;2.72;;;1.95;;
15285;SDS011;7744;52.172;10.668;2023-07-30T12:04:22;2.35;;;1.55;;
15285;SDS011;7744;52.172;10.668;2023-07-30T12:06:50;3.80;;;1.40;;
15285;SDS011;7744;52.172;10.668;2023-07-30T12:09:19;1.75;;;1.48;;
15285;SDS011;7744;52.172;10.668;2023-07-30T12:11:51;3.22;;;1.75;;
15285;SDS011;7744;52.172;10.668;2023-07-30T12:14:19;2.58;;;1.60;;
15285;SDS011;7744;52.172;10.668;2023-07-30T12:16:46;2.15;;;1.60;;
15285;SDS011;7744;52.172;10.668;2023-07-30T12:19:12;3.92;;;1.70;;
15285;SDS011;7744;52.172;10.668;2023-07-30T12:21:38;2.60;;;1.58;;
15285;SDS011;7744;52.172;10.668;2023-07-30T12:24:04;2.85;;;1.60;;
15285;SDS011;7744;52.172;10.668;2023-07-30T12:26:31;2.25;;;1.35;;
15285;SDS011;7744;52.172;10.668;2023-07-30T12:28:56;2.95;;;1.58;;
15285;SDS011;7744;52.172;10.668;2023-07-30T12:31:22;2.63;;;1.60;;
15285;SDS011;7744;52.172;10.668;2023-07-30T12:33:48;2.50;;;1.65;;
15285;SDS011;7744;52.172;10.668;2023-07-30T12:36:13;1.90;;;1.20;;
15285;SDS011;7744;52.172;10.668;2023-07-30T12:38:39;4.75;;;1.50;;
15285;SDS011;7744;52.172;10.668;2023-07-30T12:41:05;2.83;;;1.35;;
15285;SDS011;7744;52.172;10.668;2023-07-30T12:43:30;2.65;;;1.48;;
15285;SDS011;7744;52.172;10.668;2023-07-30T12:45:56;3.65;;;1.60;;
15285;SDS011;7744;52.172;10.668;2023-07-30T12:48:22;3.60;;;1.90;;
15285;SDS011;7744;52.172;10.668;2023-07-30T12:50:47;3.90;;;1.38;;
15285;SDS011;7744;52.172;10.668;2023-07-30T12:53:13;4.20;;;1.50;;
15285;SDS011;7744;52.172;10.668;2023-07-30T12:55:39;3.75;;;1.70;;
15285;SDS011;7744;52.172;10.668;2023-07-30T12:58:05;5.32;;;1.77;;
15285;SDS011;7744;52.172;10.668;2023-07-30T13:00:31;3.85;;;1.63;;
15285;SDS011;7744;52.172;10.668;2023-07-30T13:02:58;3.33;;;1.80;;
15285;SDS011;7744;52.172;10.668;2023-07-30T13:05:23;3.45;;;1.80;;
15285;SDS011;7744;52.172;10.668;2023-07-30T13:07:49;4.18;;;1.90;;
15285;SDS011;7744;52.172;10.668;2023-07-30T13:10:15;3.55;;;1.60;;
15285;SDS011;7744;52.172;10.668;2023-07-30T13:12:40;3.22;;;1.77;;
15285;SDS011;7744;52.172;10.668;2023-07-30T13:15:06;4.18;;;2.00;;
15285;SDS011;7744;52.172;10.668;2023-07-30T13:17:32;4.97;;;1.90;;
15285;SDS011;7744;52.172;10.668;2023-07-30T13:19:58;2.38;;;1.38;;
15285;SDS011;7744;52.172;10.668;2023-07-30T13:22:24;4.35;;;1.95;;
15285;SDS011;7744;52.172;10.668;2023-07-30T13:24:50;5.18;;;1.92;;
15285;SDS011;7744;52.172;10.668;2023-07-30T13:27:16;3.17;;;1.95;;
15285;SDS011;7744;52.172;10.668;2023-07-30T13:29:42;3.10;;;1.63;;
15285;SDS011;7744;52.172;10.668;2023-07-30T13:32:07;3.40;;;2.00;;
15285;SDS011;7744;52.172;10.668;2023-07-30T13:34:33;4.50;;;2.55;;
15285;SDS011;7744;52.172;10.668;2023-07-30T13:36:59;3.70;;;1.98;;
15285;SDS011;7744;52.172;10.668;2023-07-30T13:39:24;5.07;;;2.42;;
15285;SDS011;7744;52.172;10.668;2023-07-30T13:41:50;3.95;;;2.40;;
15285;SDS011;7744;52.172;10.668;2023-07-30T13:44:16;5.50;;;2.50;;
15285;SDS011;7744;52.172;10.668;2023-07-30T13:46:41;3.83;;;2.13;;
15285;SDS011;7744;52.172;10.668;2023-07-30T13:49:07;4.50;;;2.40;;
15285;SDS011;7744;52.172;10.668;2023-07-30T13:51:33;3.83;;;2.30;;
15285;SDS011;7744;52.172;10.668;2023-07-30T13:54:01;3.63;;;2.70;;
15285;SDS011;7744;52.172;10.668;2023-07-30T13:56:30;3.05;;;2.10;;
15285;SDS011;7744;52.172;10.668;2023-07-30T13:58:56;4.95;;;2.33;;
15285;SDS011;7744;52.172;10.668;2023-07-30T14:01:21;5.03;;;2.47;;
15285;SDS011;7744;52.172;10.668;2023-07-30T14:03:47;2.35;;;1.75;;
15285;SDS011;7744;52.172;10.668;2023-07-30T14:06:13;3.85;;;2.15;;
15285;SDS011;7744;52.172;10.668;2023-07-30T14:08:39;4.22;;;2.72;;
15285;SDS011;7744;52.172;10.668;2023-07-30T14:11:05;3.75;;;2.65;;
15285;SDS011;7744;52.172;10.668;2023-07-30T14:13:30;4.13;;;2.38;;
15285;SDS011;7744;52.172;10.668;2023-07-30T14:15:56;3.15;;;2.17;;
15285;SDS011;7744;52.172;10.668;2023-07-30T14:18:22;4.38;;;2.30;;
15285;SDS011;7744;52.172;10.668;2023-07-30T14:20:49;4.82;;;2.60;;
15285;SDS011;7744;52.172;10.668;2023-07-30T14:23:14;3.83;;;2.67;;
15285;SDS011;7744;52.172;10.668;2023-07-30T14:25:40;3.30;;;2.40;;
15285;SDS011;7744;52.172;10.668;2023-07-30T14:28:05;4.80;;;2.47;;
15285;SDS011;7744;52.172;10.668;2023-07-30T14:30:31;4.80;;;2.30;;
15285;SDS011;7744;52.172;10.668;2023-07-30T14:32:57;4.10;;;2.30;;
15285;SDS011;7744;52.172;10.668;2023-07-30T14:35:23;3.35;;;2.30;;
15285;SDS011;7744;52.172;10.668;2023-07-30T14:37:49;3.83;;;2.25;;
15285;SDS011;7744;52.172;10.668;2023-07-30T14:40:15;4.75;;;2.33;;
15285;SDS011;7744;52.172;10.668;2023-07-30T14:42:40;3.33;;;2.25;;
15285;SDS011;7744;52.172;10.668;2023-07-30T14:45:06;6.05;;;2.33;;
15285;SDS011;7744;52.172;10.668;2023-07-30T14:47:32;5.22;;;2.50;;
15285;SDS011;7744;52.172;10.668;2023-07-30T14:49:58;3.78;;;2.30;;